GCLP Airport Information

Runway Information
Runway 03L Length 10171 ft width 148 ft
Elevation 78 ft Threshold 0 ft Heading 22
Runway 21R Length 10171 ft Width 148 ft
Elevation 33 ft Threshold 0 ft Heading 202
Runway 03R Length 10171 ft width 148 ft
Elevation 69 ft Threshold 0 ft Heading 22
Runway 21L Length 10171 ft Width 148 ft
Elevation 27 ft Threshold 0 ft Heading 202
Airport Frequencies
Type APP Name APP Frequency 120.9 MHZ
Type ATIS Name ATIS Frequency 118.6 MHZ
Type GND Name GND Frequency 121.7 MHZ
Type TWR Name TWR Frequency 118.3 MHZ
Airport Navaids
Type VOR-DME Name Gran Canaria Frequency 112900 KHZ
Type VOR-DME Name Gran Canaria Frequency 115000 KHZ
Type TACAN Name Gran Canaria Frequency 115600 KHZ
Type NDB Name Gran Canaria Frequency 365 KHZ
Airport Weather Information & NOTAM
ADDS - METARS form results

(0815 UTC 22 May 2018)
 
METAR text: GCLP 220800Z 01007KT 320V050 9999 FEW030 20/12 Q1017 NOSIG
Conditions at: GCLP (LAS PALMAS/GANDO, ES) observed 0800 UTC 22 May 2018
Temperature: 20.0°C (68°F)
Dewpoint: 12.0°C (54°F) [RH = 60%]
Pressure (altimeter): 30.03 inches Hg (1017.0 mb)
Winds: from the N (10 degrees) at 8 MPH (7 knots; 3.6 m/s)
Visibility: 6 or more miles (10+ km)
Ceiling: at least 12,000 feet AGL
Clouds: few clouds at 3000 feet AGL
Weather: no significant weather observed at this time

METAR text: GCLP 220730Z 36009KT 9999 FEW025 19/11 Q1017 NOSIG
Conditions at: GCLP (LAS PALMAS/GANDO, ES) observed 0730 UTC 22 May 2018
Temperature: 19.0°C (66°F)
Dewpoint: 11.0°C (52°F) [RH = 60%]
Pressure (altimeter): 30.03 inches Hg (1017.0 mb)
Winds: from the N (360 degrees) at 10 MPH (9 knots; 4.7 m/s)
Visibility: 6 or more miles (10+ km)
Ceiling: at least 12,000 feet AGL
Clouds: few clouds at 2500 feet AGL
Weather: no significant weather observed at this time